Aeroporto :
LOGIN :

Iscrizione | Disclaimer

   EN    FR    IT 

 










Sommario :    VFR   VFR Marginale   IFR   IFR Intensivo   IFR Molto Intensivo
Visibilità : 
Base nubi : 
>= 8 km
>= 3000ft
5 / 8 km
1000 / 3000 ft
1500m / 5 km
500 / 1000 ft
800 / 1500m
200 / 500 ft
< 800m
< 200 ft
Simboli :   Temporali  Nebbia  Neve Forte  Precipitazioni Forti  Vento > 20 kt
SIGMETs :   Varie  Temporali  Ghiacco  Turbolenza  Onda orograficha  Ceneri Vulcaniche







- Altitudine del aeroporto : 16 ft
- Codice IATA : EAS


LESO - San Sebastian Fuenterrabia

ULTIMO METAR :
  • 230400Z AUTO 16005KT 9999 NCD 09/03 Q1027

METARs OBSOLETI :
  • 230330Z AUTO 20005KT 170V240 9999 NCD 07/04 Q1027
  • 230300Z AUTO 22003KT 180V270 9999 NCD 07/04 Q1027
  • 230230Z AUTO 20004KT 180V240 9999 NCD 08/04 Q1027
  • 230200Z AUTO 20003KT 9999 NCD 08/04 Q1028
  • 230130Z AUTO 21003KT 180V260 9999 NCD 08/04 Q1028

TAF TAF LESO
Valido dal 23 a 00 ore il 24 a 00 ore UTC


222300Z 2300/2324 22005KT CAVOK TX20/2314Z TN07/2306Z
PROB30 2313/2317 02010KT
Nessun NOTAM noto per questo aeroporto.



MetMap, La meteo Aeronautica in un colpo d'occhio ! - Copyright ORBIFLY Dicembre 2007 - Disclaimer

ORBIFLY MET'MAP TEAM :

Programmazione e sviluppo : Alexandra Zaïnal
Concezione e sviluppo : Baudouin d'Aumeries
Co-Programmazione e sviluppo : Marc-Olivier Méhu
Supporto tecnico e logistico : Manuel Goepfert
Aiuto per la traduzione : Arnaldo La Scala

Contatto : metmap@orbifly.com




FONTI E CREDITI :

   NOAA